createdAt,value
2023-08-27T00:00:09.031Z,0.90
2023-08-27T00:05:08.576Z,1.38
2023-08-27T00:10:08.788Z,1.25
2023-08-27T00:15:09.069Z,1.50
2023-08-27T00:20:08.282Z,1.70
2023-08-27T00:25:08.467Z,1.80
2023-08-27T00:30:08.592Z,1.80
2023-08-27T00:35:08.782Z,1.73
2023-08-27T00:40:08.987Z,1.60
2023-08-27T00:45:08.159Z,1.52
2023-08-27T00:50:08.360Z,1.33
2023-08-27T00:55:08.520Z,1.58
2023-08-27T01:00:08.687Z,1.60
2023-08-27T01:05:12.453Z,1.58
2023-08-27T01:10:08.660Z,1.55
2023-08-27T01:15:08.846Z,1.52
2023-08-27T01:20:09.080Z,1.60
2023-08-27T01:25:08.267Z,1.63
2023-08-27T01:30:08.460Z,1.90
2023-08-27T01:35:08.639Z,2.10
2023-08-27T01:40:08.824Z,1.90
2023-08-27T01:45:09.040Z,2.50
2023-08-27T01:50:08.352Z,2.30
2023-08-27T01:55:08.668Z,2.10
2023-08-27T02:00:08.993Z,2.60
2023-08-27T02:05:08.249Z,2.63
2023-08-27T02:10:08.470Z,2.10
2023-08-27T02:15:08.729Z,2.13
2023-08-27T02:20:08.302Z,1.58
2023-08-27T02:25:08.642Z,2.00
2023-08-27T02:30:08.837Z,1.75
2023-08-27T02:35:09.024Z,1.95
2023-08-27T02:40:08.086Z,2.17
2023-08-27T02:45:08.261Z,2.08
2023-08-27T02:50:08.408Z,1.80
2023-08-27T02:55:08.631Z,2.20
2023-08-27T03:00:08.825Z,2.08
2023-08-27T03:05:09.084Z,1.70
2023-08-27T03:10:08.326Z,2.15
2023-08-27T03:15:08.533Z,2.20
2023-08-27T03:20:08.748Z,2.55
2023-08-27T03:25:08.907Z,2.30
2023-08-27T03:30:09.118Z,2.33
2023-08-27T03:35:08.410Z,2.10
2023-08-27T03:40:08.624Z,2.22
2023-08-27T03:45:08.831Z,2.50
2023-08-27T03:50:08.985Z,2.25
2023-08-27T03:55:08.162Z,2.22
2023-08-27T04:00:08.311Z,2.30
2023-08-27T04:05:02.770Z,2.55
2023-08-27T04:10:04.608Z,2.22
2023-08-27T04:15:02.851Z,2.08
2023-08-27T04:20:03.137Z,2.33
2023-08-27T04:25:02.347Z,2.08
2023-08-27T04:30:02.631Z,2.58
2023-08-27T04:35:02.793Z,2.13
2023-08-27T04:40:03.128Z,1.60
2023-08-27T04:45:02.598Z,1.73
2023-08-27T04:50:03.039Z,2.08
2023-08-27T04:55:02.457Z,1.90
2023-08-27T05:00:02.716Z,1.52
2023-08-27T05:05:02.946Z,1.63
2023-08-27T05:10:02.859Z,1.60
2023-08-27T05:15:04.690Z,1.60
2023-08-27T05:20:02.926Z,1.30
2023-08-27T05:25:03.315Z,1.50
2023-08-27T05:30:03.606Z,1.88
2023-08-27T05:35:05.003Z,2.10
2023-08-27T05:40:02.196Z,1.83
2023-08-27T05:45:02.642Z,1.50
2023-08-27T05:50:03.019Z,1.67
2023-08-27T05:55:02.313Z,1.60
2023-08-27T06:00:02.585Z,1.33
2023-08-27T06:05:02.889Z,1.27
2023-08-27T06:10:03.182Z,1.40
2023-08-27T06:15:02.723Z,1.70
2023-08-27T06:20:03.368Z,1.75
2023-08-27T06:25:04.268Z,1.90
2023-08-27T06:30:03.322Z,1.80
2023-08-27T06:35:02.690Z,1.50
2023-08-27T06:40:04.206Z,1.70
2023-08-27T06:45:04.087Z,1.65
2023-08-27T06:50:04.836Z,1.60
2023-08-27T06:55:04.328Z,1.70
2023-08-27T07:00:04.546Z,1.50
2023-08-27T07:05:02.801Z,1.40
2023-08-27T07:10:03.138Z,1.38
2023-08-27T07:15:02.438Z,1.60
2023-08-27T07:20:04.147Z,1.60
2023-08-27T07:25:02.491Z,1.50
2023-08-27T07:30:02.825Z,1.50
2023-08-27T07:35:03.093Z,1.50
2023-08-27T07:40:02.472Z,1.40
2023-08-27T07:45:02.794Z,1.50
2023-08-27T07:50:03.088Z,1.30
2023-08-27T07:55:02.479Z,1.50
2023-08-27T08:00:03.139Z,1.25
2023-08-27T08:05:02.448Z,1.13
2023-08-27T08:10:02.730Z,1.50
2023-08-27T08:15:03.080Z,1.20
2023-08-27T08:20:02.424Z,1.42
2023-08-27T08:25:02.744Z,1.42
2023-08-27T08:30:03.026Z,1.52
2023-08-27T08:35:02.674Z,1.60
2023-08-27T08:40:03.145Z,1.77
2023-08-27T08:45:02.494Z,1.60
2023-08-27T08:50:02.889Z,2.00
2023-08-27T08:55:03.166Z,1.50
2023-08-27T09:00:02.306Z,1.65
2023-08-27T09:05:02.813Z,1.60
2023-08-27T09:10:03.349Z,2.08
2023-08-27T09:15:02.675Z,1.67
2023-08-27T09:20:03.038Z,1.92
2023-08-27T09:25:02.483Z,1.92
2023-08-27T09:30:02.936Z,2.00
2023-08-27T09:35:02.443Z,1.98
2023-08-27T09:40:02.906Z,1.65
2023-08-27T09:45:02.202Z,2.10
2023-08-27T09:50:02.413Z,1.77
2023-08-27T09:55:02.862Z,1.70
2023-08-27T10:00:03.141Z,2.25
2023-08-27T10:05:02.551Z,2.00
2023-08-27T10:10:02.891Z,1.92
2023-08-27T10:15:03.250Z,2.00
2023-08-27T10:20:02.617Z,1.73
2023-08-27T10:25:04.606Z,1.90
2023-08-27T10:30:02.852Z,1.48
2023-08-27T10:35:03.148Z,1.95
2023-08-27T10:40:02.533Z,1.83
2023-08-27T10:45:02.891Z,1.98
2023-08-27T10:50:03.100Z,1.48
2023-08-27T10:55:03.664Z,1.58
2023-08-27T11:00:04.793Z,1.58
2023-08-27T11:05:02.984Z,1.70
2023-08-27T11:10:02.378Z,1.58
2023-08-27T11:15:12.603Z,0
2023-08-27T11:20:03.018Z,1.38
2023-08-27T11:25:07.356Z,1.27
2023-08-27T11:30:02.634Z,1.45
2023-08-27T11:35:03.186Z,1.17
2023-08-27T11:40:02.676Z,1.60
2023-08-27T11:45:02.996Z,1.20
2023-08-27T11:50:02.307Z,1.17
2023-08-27T11:55:04.708Z,1.15
2023-08-27T12:00:03.117Z,1.20
2023-08-27T12:05:02.458Z,1.08
2023-08-27T12:10:07.944Z,1.00
2023-08-27T12:15:02.268Z,0.60
2023-08-27T12:20:02.802Z,0.70
2023-08-27T12:25:03.147Z,0.60
2023-08-27T12:30:02.475Z,0.80
2023-08-27T12:35:02.914Z,1.08
2023-08-27T12:40:02.185Z,1.00
2023-08-27T12:45:02.451Z,0.80
2023-08-27T12:50:03.285Z,0.60
2023-08-27T12:55:02.603Z,0.90
2023-08-27T13:00:02.942Z,0.68
2023-08-27T13:05:02.378Z,0.80
2023-08-27T13:10:02.619Z,0.68
2023-08-27T13:15:02.940Z,0.70
2023-08-27T13:20:02.219Z,0.70
2023-08-27T13:25:02.473Z,0.55
2023-08-27T13:30:02.673Z,0.55
2023-08-27T13:35:03.005Z,0.70
2023-08-27T13:40:02.547Z,0.70
2023-08-27T13:45:02.849Z,0.80
2023-08-27T13:50:03.160Z,0.65
2023-08-27T13:55:02.436Z,0.90
2023-08-27T14:00:02.681Z,0.80
2023-08-27T14:05:02.935Z,0.80
2023-08-27T14:10:03.226Z,0.73
2023-08-27T14:15:02.993Z,0.68
2023-08-27T14:20:02.276Z,0.88
2023-08-27T14:25:02.516Z,0.70
2023-08-27T14:30:03.098Z,0.75
2023-08-27T14:35:02.446Z,0.70
2023-08-27T14:40:02.990Z,0.60
2023-08-27T14:45:02.458Z,0.60
2023-08-27T14:50:02.837Z,0.73
2023-08-27T14:55:05.911Z,0.70
2023-08-27T15:00:02.787Z,0.80
2023-08-27T15:05:03.175Z,0.65
2023-08-27T15:10:02.365Z,0.70
2023-08-27T15:15:03.650Z,0.70
2023-08-27T15:20:05.019Z,0.80
2023-08-27T15:25:02.363Z,0.65
2023-08-27T15:30:02.769Z,1.10
2023-08-27T15:35:03.145Z,0.82
2023-08-27T15:40:02.448Z,1.02
2023-08-27T15:45:02.769Z,0.70
2023-08-27T15:50:03.163Z,0.68
2023-08-27T15:55:02.669Z,0.90
2023-08-27T16:00:03.097Z,0.90
2023-08-27T16:05:02.455Z,0.90
2023-08-27T16:10:03.222Z,1.08
2023-08-27T16:15:02.866Z,0.82
2023-08-27T16:20:04.793Z,0.80
2023-08-27T16:25:03.189Z,1.13
2023-08-27T16:30:02.510Z,1.00
2023-08-27T16:35:03.221Z,0.90
2023-08-27T16:40:02.693Z,1.23
2023-08-27T16:45:03.208Z,1.40
2023-08-27T16:50:04.137Z,1.00
2023-08-27T16:55:02.897Z,1.20
2023-08-27T17:00:02.622Z,1.10
2023-08-27T17:05:03.018Z,1.20
2023-08-27T17:10:06.571Z,1.17
2023-08-27T17:15:03.703Z,1.13
2023-08-27T17:20:04.353Z,1.13
2023-08-27T17:25:02.762Z,1.10
2023-08-27T17:30:03.609Z,0.82
2023-08-27T17:35:03.051Z,1.10
2023-08-27T17:40:02.680Z,1.00
2023-08-27T17:45:03.160Z,1.20
2023-08-27T17:50:02.464Z,1.20
2023-08-27T17:55:03.232Z,1.30
2023-08-27T18:00:02.938Z,1.20
2023-08-27T18:05:02.781Z,1.10
2023-08-27T18:10:03.302Z,1.33
2023-08-27T18:15:02.907Z,0.80
2023-08-27T18:20:03.325Z,1.00
2023-08-27T18:25:02.787Z,1.33
2023-08-27T18:30:03.247Z,1.08
2023-08-27T18:35:02.516Z,1.38
2023-08-27T18:40:03.154Z,1.50
2023-08-27T18:45:07.180Z,1.13
2023-08-27T18:50:04.912Z,1.10
2023-08-27T18:55:03.243Z,1.30
2023-08-27T19:00:02.895Z,1.40
2023-08-27T19:05:03.269Z,1.40
2023-08-27T19:10:05.450Z,1.20
2023-08-27T19:15:02.730Z,1.40
2023-08-27T19:20:03.148Z,1.42
2023-08-27T19:25:02.640Z,1.55
2023-08-27T19:30:03.243Z,1.52
2023-08-27T19:35:02.752Z,1.90
2023-08-27T19:40:03.115Z,1.70
2023-08-27T19:45:02.719Z,1.58
2023-08-27T19:50:03.723Z,1.80
2023-08-27T19:55:04.373Z,1.83
2023-08-27T20:00:03.810Z,1.90
2023-08-27T20:05:03.959Z,2.10
2023-08-27T20:10:02.575Z,1.85
2023-08-27T20:15:03.892Z,2.45
2023-08-27T20:20:03.973Z,2.53
2023-08-27T20:25:02.402Z,2.50
2023-08-27T20:30:03.292Z,2.40
2023-08-27T20:35:02.835Z,2.70
2023-08-27T20:40:03.704Z,2.63
2023-08-27T20:45:04.076Z,2.90
2023-08-27T20:50:02.481Z,3.22
2023-08-27T20:55:03.398Z,3.10
2023-08-27T21:00:02.845Z,2.95
2023-08-27T21:05:03.206Z,3.05
2023-08-27T21:10:03.368Z,3.58
2023-08-27T21:15:03.212Z,2.80
2023-08-27T21:20:03.025Z,3.10
2023-08-27T21:25:02.338Z,2.97
2023-08-27T21:30:02.629Z,3.75
2023-08-27T21:35:04.577Z,3.30
2023-08-27T21:40:03.047Z,2.95
2023-08-27T21:45:02.480Z,3.55
2023-08-27T21:50:02.844Z,2.90
2023-08-27T21:55:03.480Z,2.50
2023-08-27T22:00:03.260Z,2.80
2023-08-27T22:05:15.437Z,2.80
2023-08-27T22:10:08.665Z,3.08
2023-08-27T22:15:08.884Z,3.20
2023-08-27T22:20:09.350Z,2.97
2023-08-27T22:25:08.425Z,2.90
2023-08-27T22:30:08.526Z,2.95
2023-08-27T22:35:08.662Z,3.28
2023-08-27T22:40:08.808Z,2.70
2023-08-27T22:45:08.958Z,2.70
2023-08-27T22:50:08.165Z,2.17
2023-08-27T22:55:08.419Z,2.67
2023-08-27T23:01:07.594Z,2.80
2023-08-27T23:05:08.792Z,2.50
2023-08-27T23:10:08.322Z,2.65
2023-08-27T23:15:08.444Z,2.47
2023-08-27T23:20:08.547Z,2.17
2023-08-27T23:25:08.677Z,2.40
2023-08-27T23:30:08.805Z,2.20
2023-08-27T23:35:08.951Z,2.10
2023-08-27T23:40:08.096Z,2.55
2023-08-27T23:45:08.256Z,2.35
2023-08-27T23:50:08.473Z,2.20
2023-08-27T23:55:08.652Z,2.28
